createdAt,value
2023-02-04T00:00:13.629Z,0.87
2023-02-04T00:02:23.044Z,0.80
2023-02-04T00:04:32.277Z,0.83
2023-02-04T00:06:40.923Z,0.53
2023-02-04T00:08:51.790Z,0.40
2023-02-04T00:11:00.726Z,0.30
2023-02-04T00:13:09.443Z,0.50
2023-02-04T00:15:18.342Z,0.40
2023-02-04T00:17:27.443Z,0.73
2023-02-04T00:19:36.370Z,0.30
2023-02-04T00:21:45.308Z,0.60
2023-02-04T00:23:56.617Z,0.50
2023-02-04T00:26:05.639Z,0.57
2023-02-04T00:28:14.402Z,0.50
2023-02-04T00:30:23.171Z,0.30
2023-02-04T00:32:31.820Z,0.43
2023-02-04T00:34:40.612Z,0.60
2023-02-04T00:36:49.661Z,0.70
2023-02-04T00:39:00.131Z,0.50
2023-02-04T00:41:09.001Z,0.40
2023-02-04T00:43:17.696Z,0.40
2023-02-04T00:45:26.398Z,0.53
2023-02-04T00:47:35.050Z,0.47
2023-02-04T00:49:44.252Z,0.33
2023-02-04T00:51:53.080Z,0.73
2023-02-04T00:54:03.408Z,0.60
2023-02-04T00:56:12.296Z,0.40
2023-02-04T00:58:20.932Z,0.87
2023-02-04T01:00:30.361Z,0.70
2023-02-04T01:02:40.936Z,0.60
2023-02-04T01:04:50.136Z,0.60
2023-02-04T01:06:58.733Z,0.67
2023-02-04T01:09:09.097Z,0.70
2023-02-04T01:11:18.216Z,0.53
2023-02-04T01:13:27.413Z,0.60
2023-02-04T01:15:36.440Z,0.70
2023-02-04T01:17:45.372Z,0.40
2023-02-04T01:19:54.260Z,0.60
2023-02-04T01:22:02.983Z,0.70
2023-02-04T01:24:13.375Z,0.60
2023-02-04T01:26:22.603Z,0.67
2023-02-04T01:28:31.360Z,0.80
2023-02-04T01:30:40.016Z,1.00
2023-02-04T01:32:48.914Z,1.03
2023-02-04T01:34:57.687Z,1.10
2023-02-04T01:37:06.814Z,1.00
2023-02-04T01:39:17.339Z,1.03
2023-02-04T01:41:26.866Z,0.80
2023-02-04T01:43:36.525Z,0.63
2023-02-04T01:45:45.586Z,0.70
2023-02-04T01:47:54.955Z,0.60
2023-02-04T01:50:03.822Z,0.50
2023-02-04T01:52:13.602Z,0.67
2023-02-04T01:54:23.930Z,0.60
2023-02-04T01:56:33.213Z,0.73
2023-02-04T01:58:42.426Z,0.60
2023-02-04T02:00:51.507Z,0.80
2023-02-04T02:03:01.033Z,0.73
2023-02-04T02:05:10.569Z,0.60
2023-02-04T02:07:20.004Z,0.80
2023-02-04T02:09:30.378Z,0.80
2023-02-04T02:11:39.317Z,0.57
2023-02-04T02:13:48.487Z,0.40
2023-02-04T02:15:57.570Z,0.80
2023-02-04T02:18:06.287Z,0.30
2023-02-04T02:20:16.093Z,0.40
2023-02-04T02:22:27.792Z,0.57
2023-02-04T02:24:38.871Z,0.63
2023-02-04T02:26:47.476Z,0.30
2023-02-04T02:28:56.475Z,0.50
2023-02-04T02:31:06.167Z,0.57
2023-02-04T02:33:17.394Z,0.60
2023-02-04T02:35:26.615Z,0.43
2023-02-04T02:37:35.991Z,0.47
2023-02-04T02:39:47.822Z,0.50
2023-02-04T02:41:57.260Z,1.30
2023-02-04T02:44:06.307Z,0.60
2023-02-04T02:46:14.937Z,0.43
2023-02-04T02:48:24.316Z,0.50
2023-02-04T02:50:34.593Z,0.50
2023-02-04T02:52:43.080Z,0.60
2023-02-04T02:54:53.870Z,0.60
2023-02-04T02:57:03.132Z,0.67
2023-02-04T02:59:15.772Z,0.57
2023-02-04T03:01:24.760Z,0.40
2023-02-04T03:03:35.242Z,0.53
2023-02-04T03:05:46.207Z,0.90
2023-02-04T03:07:55.469Z,0.57
2023-02-04T03:10:05.944Z,0.70
2023-02-04T03:12:14.906Z,0.57
2023-02-04T03:14:25.430Z,0.60
2023-02-04T03:16:36.935Z,0.57
2023-02-04T03:18:46.067Z,0.70
2023-02-04T03:20:57.663Z,0.50
2023-02-04T03:23:06.587Z,0.50
2023-02-04T03:25:17.061Z,0.77
2023-02-04T03:27:26.386Z,0.60
2023-02-04T03:29:35.311Z,0.63
2023-02-04T03:31:44.294Z,0.43
2023-02-04T03:33:53.129Z,0.80
2023-02-04T03:36:02.300Z,0.60
2023-02-04T03:38:11.404Z,0.73
2023-02-04T03:40:22.662Z,0.80
2023-02-04T03:42:31.527Z,0.60
2023-02-04T03:44:40.315Z,0.87
2023-02-04T03:46:49.185Z,0.70
2023-02-04T03:48:58.179Z,0.50
2023-02-04T03:51:07.763Z,0.70
2023-02-04T03:53:16.604Z,0.40
2023-02-04T03:55:27.038Z,0.60
2023-02-04T03:57:36.416Z,0.50
2023-02-04T03:59:45.655Z,0.37
2023-02-04T04:01:54.354Z,0.80
2023-02-04T04:04:03.533Z,0.77
2023-02-04T04:06:12.587Z,0.73
2023-02-04T04:08:21.691Z,0.70
2023-02-04T04:10:32.405Z,0.80
2023-02-04T04:12:41.611Z,0.40
2023-02-04T04:14:50.468Z,0.53
2023-02-04T04:16:59.597Z,0.67
2023-02-04T04:19:08.452Z,0.60
2023-02-04T04:21:17.317Z,0.73
2023-02-04T04:23:25.799Z,0.70
2023-02-04T04:25:36.171Z,0.50
2023-02-04T04:27:45.235Z,0.70
2023-02-04T04:29:54.232Z,0.50
2023-02-04T04:32:02.971Z,0.70
2023-02-04T04:34:11.588Z,0.77
2023-02-04T04:36:20.919Z,0.43
2023-02-04T04:38:29.942Z,0.83
2023-02-04T04:40:39.789Z,0.87
2023-02-04T04:42:48.457Z,0.50
2023-02-04T04:44:57.557Z,0.90
2023-02-04T04:47:06.090Z,0.30
2023-02-04T04:49:15.669Z,0.60
2023-02-04T04:51:26.240Z,0.50
2023-02-04T04:53:35.150Z,0.50
2023-02-04T04:55:45.555Z,0.70
2023-02-04T04:57:54.314Z,0.33
2023-02-04T05:00:03.673Z,0.60
2023-02-04T05:02:12.531Z,0.60
2023-02-04T05:04:21.575Z,0.50
2023-02-04T05:06:30.836Z,0.50
2023-02-04T05:08:39.776Z,0.70
2023-02-04T05:10:49.992Z,0.53
2023-02-04T05:12:58.574Z,0.43
2023-02-04T05:15:07.507Z,0.40
2023-02-04T05:17:16.465Z,0.63
2023-02-04T05:19:25.062Z,0.70
2023-02-04T05:21:34.153Z,0.80
2023-02-04T05:23:42.805Z,0.37
2023-02-04T05:25:52.915Z,0.30
2023-02-04T05:28:02.040Z,0.40
2023-02-04T05:30:12.992Z,0.83
2023-02-04T05:32:22.050Z,0.70
2023-02-04T05:34:31.122Z,0.43
2023-02-04T05:36:39.672Z,0.33
2023-02-04T05:38:48.586Z,0.50
2023-02-04T05:40:59.169Z,0.43
2023-02-04T05:43:07.889Z,0.53
2023-02-04T05:45:19.041Z,0.33
2023-02-04T05:47:27.753Z,0.40
2023-02-04T05:49:36.680Z,0.40
2023-02-04T05:51:45.692Z,0.60
2023-02-04T05:53:54.728Z,0.60
2023-02-04T05:56:05.237Z,0.70
2023-02-04T05:58:13.951Z,0.70
2023-02-04T06:00:23.292Z,0.60
2023-02-04T06:02:32.433Z,0.73
2023-02-04T06:04:42.904Z,0.37
2023-02-04T06:06:53.570Z,0.70
2023-02-04T06:09:03.005Z,0.87
2023-02-04T06:11:14.224Z,0.60
2023-02-04T06:13:22.939Z,0.57
2023-02-04T06:15:31.934Z,0.60
2023-02-04T06:17:40.693Z,0.63
2023-02-04T06:19:49.967Z,0.50
2023-02-04T06:21:59.003Z,1.13
2023-02-04T06:24:08.480Z,0.30
2023-02-04T06:26:18.604Z,0.40
2023-02-04T06:28:27.635Z,0.40
2023-02-04T06:30:37.611Z,0.40
2023-02-04T06:32:46.731Z,0.30
2023-02-04T06:34:55.548Z,0.37
2023-02-04T06:37:04.340Z,0.70
2023-02-04T06:39:13.066Z,0.47
2023-02-04T06:41:23.829Z,0.50
2023-02-04T06:43:32.869Z,0.70
2023-02-04T06:45:41.451Z,0.73
2023-02-04T06:47:50.393Z,1.10
2023-02-04T06:49:59.126Z,0.67
2023-02-04T06:52:08.040Z,0.70
2023-02-04T06:54:17.067Z,0.70
2023-02-04T06:56:29.944Z,0.87
2023-02-04T06:58:38.663Z,0.70
2023-02-04T07:00:47.651Z,1.20
2023-02-04T07:02:57.015Z,1.17
2023-02-04T07:05:07.530Z,0.60
2023-02-04T07:07:16.185Z,0.70
2023-02-04T07:09:24.917Z,0.87
2023-02-04T07:11:35.386Z,0.53
2023-02-04T07:13:44.148Z,0.80
2023-02-04T07:15:54.115Z,0.57
2023-02-04T07:18:02.883Z,1.00
2023-02-04T07:20:12.646Z,0.43
2023-02-04T07:22:21.673Z,0.80
2023-02-04T07:24:30.647Z,0.47
2023-02-04T07:26:41.017Z,0.20
2023-02-04T07:28:49.854Z,0.50
2023-02-04T07:30:58.759Z,0.70
2023-02-04T07:33:07.728Z,0.40
2023-02-04T07:35:17.703Z,0.60
2023-02-04T07:37:26.824Z,0.77
2023-02-04T07:39:35.452Z,1.03
2023-02-04T07:41:46.416Z,0.50
2023-02-04T07:43:55.433Z,0.93
2023-02-04T07:46:04.516Z,0.37
2023-02-04T07:48:14.054Z,0.80
2023-02-04T07:50:22.830Z,0.63
2023-02-04T07:52:31.861Z,0.90
2023-02-04T07:54:41.020Z,0.67
2023-02-04T07:56:52.007Z,1.23
2023-02-04T07:59:00.679Z,0.80
2023-02-04T08:01:10.159Z,1.00
2023-02-04T08:03:18.962Z,1.17
2023-02-04T08:05:27.797Z,0.80
2023-02-04T08:07:37.115Z,0.70
2023-02-04T08:09:47.180Z,1.00
2023-02-04T08:11:57.540Z,0.87
2023-02-04T08:14:06.786Z,0.77
2023-02-04T08:16:15.623Z,0.57
2023-02-04T08:18:25.550Z,0.63
2023-02-04T08:20:34.589Z,0.77
2023-02-04T08:22:43.774Z,1.10
2023-02-04T08:24:52.738Z,0.83
2023-02-04T08:27:03.066Z,1.03
2023-02-04T08:29:11.997Z,1.03
2023-02-04T08:31:20.923Z,1.00
2023-02-04T08:33:29.932Z,0.90
2023-02-04T08:35:38.632Z,0.73
2023-02-04T08:37:47.501Z,0.63
2023-02-04T08:39:56.629Z,0.60
2023-02-04T08:42:07.056Z,0.77
2023-02-04T08:44:15.885Z,0.80
2023-02-04T08:46:24.925Z,1.07
2023-02-04T08:48:34.014Z,0.83
2023-02-04T08:50:42.799Z,0.63
2023-02-04T08:52:51.483Z,0.57
2023-02-04T08:55:00.599Z,0.70
2023-02-04T08:57:11.131Z,0.60
2023-02-04T08:59:19.794Z,0.60
2023-02-04T09:01:29.029Z,0.67
2023-02-04T09:03:37.864Z,0.63
2023-02-04T09:05:47.672Z,0.80
2023-02-04T09:07:56.909Z,0.50
2023-02-04T09:10:05.701Z,0.80
2023-02-04T09:12:16.116Z,0.70
2023-02-04T09:14:25.397Z,0.70
2023-02-04T09:16:34.388Z,0.80
2023-02-04T09:18:43.347Z,0.80
2023-02-04T09:20:52.547Z,0.70
2023-02-04T09:23:01.372Z,0.70
2023-02-04T09:25:11.000Z,0.70
2023-02-04T09:27:21.193Z,0.60
2023-02-04T09:29:30.159Z,0.60
2023-02-04T09:31:39.541Z,0.47
2023-02-04T09:33:48.645Z,0.80
2023-02-04T09:35:57.441Z,0.60
2023-02-04T09:38:06.925Z,0.50
2023-02-04T09:40:17.494Z,0.70
2023-02-04T09:42:28.433Z,0.67
2023-02-04T09:44:37.357Z,0.50
2023-02-04T09:46:49.232Z,0.50
2023-02-04T09:48:58.385Z,0.80
2023-02-04T09:51:08.647Z,0.77
2023-02-04T09:53:19.265Z,0.70
2023-02-04T09:55:33.132Z,0.40
2023-02-04T09:57:43.418Z,0.50
2023-02-04T09:59:53.046Z,1.03
2023-02-04T10:02:02.484Z,0.67
2023-02-04T10:04:13.299Z,0.50
2023-02-04T10:06:23.245Z,1.13
2023-02-04T10:08:33.755Z,0.30
2023-02-04T10:10:42.584Z,0.63
2023-02-04T10:12:53.570Z,0.80
2023-02-04T10:15:04.023Z,0.50
2023-02-04T10:17:13.920Z,0.87
2023-02-04T10:19:22.985Z,0.70
2023-02-04T10:21:32.533Z,0.80
2023-02-04T10:23:41.243Z,0.60
2023-02-04T10:25:50.061Z,0.60
2023-02-04T10:28:01.496Z,0.67
2023-02-04T10:30:19.248Z,0.70
2023-02-04T10:32:29.028Z,0.60
2023-02-04T10:34:39.993Z,1.13
2023-02-04T10:36:49.529Z,0.37
2023-02-04T10:39:04.460Z,0.63
2023-02-04T10:41:16.686Z,0.70
2023-02-04T10:43:27.134Z,0.73
2023-02-04T10:45:35.957Z,0.80
2023-02-04T10:47:52.745Z,0.60
2023-02-04T10:50:04.984Z,0.57
2023-02-04T10:52:18.216Z,0.87
2023-02-04T10:54:34.071Z,0.53
2023-02-04T10:56:43.815Z,0.73
2023-02-04T10:58:54.434Z,0.50
2023-02-04T11:01:03.306Z,0.50
2023-02-04T11:03:14.517Z,0.60
2023-02-04T11:05:24.146Z,0.47
2023-02-04T11:07:33.084Z,0.90
2023-02-04T11:09:43.474Z,0.80
2023-02-04T11:11:53.044Z,0.70
2023-02-04T11:14:04.529Z,0.50
2023-02-04T11:16:15.613Z,0.43
2023-02-04T11:18:30.316Z,0.50
2023-02-04T11:20:40.970Z,0.60
2023-02-04T11:22:53.906Z,0.70
2023-02-04T11:25:02.933Z,0.80
2023-02-04T11:27:22.658Z,1.00
2023-02-04T11:29:37.054Z,0.67
2023-02-04T11:31:47.958Z,0.60
2023-02-04T11:34:11.422Z,0.90
2023-02-04T11:36:20.582Z,0.77
2023-02-04T11:38:30.395Z,0.57
2023-02-04T11:40:40.768Z,0.50
2023-02-04T11:42:50.058Z,1.00
2023-02-04T11:45:02.113Z,0.70
2023-02-04T11:47:11.018Z,0.80
2023-02-04T11:49:21.651Z,0.90
2023-02-04T11:51:32.393Z,0.60
2023-02-04T11:53:40.880Z,0.67
2023-02-04T11:55:49.648Z,0.70
2023-02-04T11:57:58.978Z,0.70
2023-02-04T12:00:14.988Z,0.60
2023-02-04T12:02:26.515Z,0.60
2023-02-04T12:04:35.448Z,0.77
2023-02-04T12:06:45.273Z,0.73
2023-02-04T12:08:54.164Z,0.70
2023-02-04T12:11:04.493Z,1.07
2023-02-04T12:13:20.582Z,0.70
2023-02-04T12:15:36.950Z,1.00
2023-02-04T12:17:47.394Z,0.93
2023-02-04T12:19:56.358Z,0.57
2023-02-04T12:22:05.244Z,1.10
2023-02-04T12:24:14.493Z,0.70
2023-02-04T12:26:23.237Z,0.80
2023-02-04T12:28:32.668Z,0.90
2023-02-04T12:30:43.059Z,0.63
2023-02-04T12:32:51.892Z,0.60
2023-02-04T12:35:00.672Z,0.70
2023-02-04T12:37:09.483Z,0.97
2023-02-04T12:39:18.602Z,0.80
2023-02-04T12:41:28.895Z,0.77
2023-02-04T12:43:37.773Z,0.40
2023-02-04T12:45:50.130Z,0.83
2023-02-04T12:47:59.061Z,0.80
2023-02-04T12:50:08.568Z,0.80
2023-02-04T12:52:18.970Z,0.50
2023-02-04T12:54:27.756Z,0.73
2023-02-04T12:56:36.699Z,0.50
2023-02-04T12:58:45.753Z,0.60
2023-02-04T13:00:56.774Z,0.80
2023-02-04T13:03:05.932Z,0.90
2023-02-04T13:05:15.142Z,0.70
2023-02-04T13:07:24.028Z,0.70
2023-02-04T13:09:33.088Z,0.70
2023-02-04T13:11:41.809Z,1.07
2023-02-04T13:13:51.132Z,0.80
2023-02-04T13:16:01.997Z,0.50
2023-02-04T13:18:11.100Z,0.77
2023-02-04T13:20:20.718Z,1.13
2023-02-04T13:22:29.723Z,0.50
2023-02-04T13:24:38.776Z,0.77
2023-02-04T13:26:47.531Z,1.10
2023-02-04T13:28:56.089Z,0.70
2023-02-04T13:31:07.209Z,1.40
2023-02-04T13:33:16.892Z,1.10
2023-02-04T13:35:25.712Z,1.00
2023-02-04T13:37:34.665Z,0.93
2023-02-04T13:39:44.683Z,1.47
2023-02-04T13:41:53.601Z,0.47
2023-02-04T13:44:02.351Z,0.70
2023-02-04T13:46:12.847Z,0.70
2023-02-04T13:48:21.816Z,1.20
2023-02-04T13:50:31.514Z,0.90
2023-02-04T13:52:42.004Z,0.90
2023-02-04T13:54:51.379Z,0.60
2023-02-04T13:57:00.660Z,0.90
2023-02-04T13:59:09.783Z,0.70
2023-02-04T14:01:21.987Z,0.70
2023-02-04T14:03:31.578Z,0.47
2023-02-04T14:05:40.275Z,0.80
2023-02-04T14:07:49.298Z,1.10
2023-02-04T14:09:58.369Z,0.80
2023-02-04T14:12:07.361Z,0.93
2023-02-04T14:14:16.380Z,0.90
2023-02-04T14:16:26.431Z,0.90
2023-02-04T14:18:35.859Z,1.30
2023-02-04T14:20:44.978Z,1.00
2023-02-04T14:22:53.692Z,1.20
2023-02-04T14:25:02.441Z,0.90
2023-02-04T14:27:11.276Z,1.17
2023-02-04T14:29:20.169Z,1.03
2023-02-04T14:31:31.043Z,0.90
2023-02-04T14:33:39.918Z,1.10
2023-02-04T14:35:48.508Z,0.80
2023-02-04T14:37:57.125Z,1.00
2023-02-04T14:40:06.641Z,1.30
2023-02-04T14:42:15.462Z,1.10
2023-02-04T14:44:24.853Z,0.83
2023-02-04T14:46:36.482Z,0.77
2023-02-04T14:48:45.750Z,0.77
2023-02-04T14:50:54.862Z,0.60
2023-02-04T14:53:04.005Z,1.07
2023-02-04T14:55:14.496Z,0.93
2023-02-04T14:57:23.658Z,0.83
2023-02-04T14:59:32.653Z,1.47
2023-02-04T15:01:45.388Z,1.30
2023-02-04T15:03:54.073Z,1.10
2023-02-04T15:06:03.123Z,1.20
2023-02-04T15:08:12.065Z,0.87
2023-02-04T15:10:21.547Z,1.30
2023-02-04T15:12:30.630Z,1.30
2023-02-04T15:14:39.500Z,1.30
2023-02-04T15:16:50.422Z,1.50
2023-02-04T15:18:59.132Z,1.73
2023-02-04T15:21:08.235Z,1.63
2023-02-04T15:23:18.254Z,1.33
2023-02-04T15:25:27.400Z,1.27
2023-02-04T15:27:36.109Z,1.50
2023-02-04T15:29:44.636Z,1.70
2023-02-04T15:31:56.307Z,1.53
2023-02-04T15:34:06.184Z,1.23
2023-02-04T15:36:15.110Z,1.93
2023-02-04T15:38:24.042Z,1.97
2023-02-04T15:40:33.220Z,3.00
2023-02-04T15:42:43.056Z,2.53
2023-02-04T15:44:52.025Z,2.13
2023-02-04T15:47:02.571Z,1.87
2023-02-04T15:49:11.217Z,1.47
2023-02-04T15:51:20.147Z,1.40
2023-02-04T15:53:29.406Z,1.50
2023-02-04T15:55:38.700Z,1.40
2023-02-04T15:57:47.627Z,1.90
2023-02-04T15:59:56.368Z,2.23
2023-02-04T16:02:07.016Z,2.43
2023-02-04T16:04:16.019Z,1.70
2023-02-04T16:06:24.906Z,3.07
2023-02-04T16:08:33.933Z,2.00
2023-02-04T16:10:43.086Z,2.53
2023-02-04T16:12:52.590Z,3.00
2023-02-04T16:15:01.529Z,3.83
2023-02-04T16:17:11.892Z,2.57
2023-02-04T16:19:20.918Z,3.50
2023-02-04T16:21:29.654Z,2.90
2023-02-04T16:23:38.473Z,2.50
2023-02-04T16:25:47.218Z,2.90
2023-02-04T16:27:56.371Z,3.40
2023-02-04T16:30:06.310Z,3.40
2023-02-04T16:32:16.945Z,3.23
2023-02-04T16:34:26.097Z,3.70
2023-02-04T16:36:34.833Z,3.47
2023-02-04T16:38:44.268Z,3.63
2023-02-04T16:40:52.997Z,3.60
2023-02-04T16:43:02.066Z,3.43
2023-02-04T16:45:11.271Z,3.97
2023-02-04T16:47:21.960Z,3.83
2023-02-04T16:49:31.048Z,3.70
2023-02-04T16:51:40.113Z,22.07
2023-02-04T16:53:48.744Z,22.73
2023-02-04T16:55:57.773Z,26.73
2023-02-04T16:58:06.502Z,18.70
2023-02-04T17:00:16.346Z,9.90
2023-02-04T17:02:27.495Z,8.60
2023-02-04T17:04:36.451Z,9.50
2023-02-04T17:06:45.596Z,7.73
2023-02-04T17:08:54.335Z,8.77
2023-02-04T17:11:20.939Z,8.67
2023-02-04T17:13:30.135Z,12.97
2023-02-04T17:15:38.995Z,11.87
2023-02-04T17:17:49.356Z,10.70
2023-02-04T17:19:59.354Z,10.07
2023-02-04T17:22:08.217Z,9.57
2023-02-04T17:24:16.921Z,10.00
2023-02-04T17:26:25.630Z,9.97
2023-02-04T17:28:34.658Z,8.77
2023-02-04T17:30:43.654Z,9.37
2023-02-04T17:32:54.626Z,10.40
2023-02-04T17:35:03.357Z,15.57
2023-02-04T17:37:12.211Z,7.23
2023-02-04T17:39:21.046Z,8.47
2023-02-04T17:41:30.780Z,7.03
2023-02-04T17:43:40.416Z,5.13
2023-02-04T17:45:49.486Z,3.77
2023-02-04T17:48:00.011Z,3.40
2023-02-04T17:50:10.493Z,2.73
2023-02-04T17:52:19.814Z,2.20
2023-02-04T17:54:30.272Z,1.90
2023-02-04T17:56:39.683Z,2.57
2023-02-04T17:58:48.262Z,2.40
2023-02-04T18:00:58.030Z,2.67
2023-02-04T18:03:12.712Z,3.10
2023-02-04T18:05:22.673Z,3.07
2023-02-04T18:07:31.687Z,2.80
2023-02-04T18:09:40.391Z,2.50
2023-02-04T18:11:49.120Z,2.23
2023-02-04T18:14:02.189Z,2.47
2023-02-04T18:16:19.002Z,2.53
2023-02-04T18:18:30.368Z,2.93
2023-02-04T18:20:39.018Z,4.00
2023-02-04T18:22:48.154Z,8.83
2023-02-04T18:24:57.161Z,8.17
2023-02-04T18:27:14.757Z,7.40
2023-02-04T18:29:30.669Z,11.47
2023-02-04T18:31:42.372Z,14.57
2023-02-04T18:33:54.876Z,16.30
2023-02-04T18:36:03.976Z,13.73
2023-02-04T18:38:23.127Z,12.40
2023-02-04T18:40:33.840Z,5.43
2023-02-04T18:42:44.208Z,6.03
2023-02-04T18:44:55.111Z,5.60
2023-02-04T18:47:04.452Z,4.57
2023-02-04T18:49:22.864Z,5.50
2023-02-04T18:51:33.966Z,5.43
2023-02-04T18:53:42.687Z,5.07
2023-02-04T18:55:53.214Z,4.83
2023-02-04T18:58:12.223Z,5.30
2023-02-04T19:00:32.826Z,6.03
2023-02-04T19:02:43.956Z,5.63
2023-02-04T19:05:12.087Z,6.63
2023-02-04T19:07:21.557Z,7.03
2023-02-04T19:09:32.434Z,6.10
2023-02-04T19:11:42.807Z,6.07
2023-02-04T19:13:52.884Z,8.20
2023-02-04T19:16:03.881Z,14.47
2023-02-04T19:18:22.085Z,19.63
2023-02-04T19:20:32.342Z,24.53
2023-02-04T19:22:46.539Z,19.70
2023-02-04T19:24:58.396Z,21.33
2023-02-04T19:27:18.821Z,14.77
2023-02-04T19:29:38.939Z,15.73
2023-02-04T19:31:49.257Z,16.70
2023-02-04T19:33:58.177Z,13.90
2023-02-04T19:36:25.362Z,15.17
2023-02-04T19:38:39.484Z,15.00
2023-02-04T19:40:49.209Z,14.77
2023-02-04T19:43:01.155Z,15.17
2023-02-04T19:45:16.189Z,11.03
2023-02-04T19:47:26.732Z,17.80
2023-02-04T19:49:37.967Z,14.33
2023-02-04T19:51:48.861Z,14.00
2023-02-04T19:54:02.874Z,12.30
2023-02-04T19:56:28.008Z,10.07
2023-02-04T19:58:40.034Z,9.13
2023-02-04T20:00:49.838Z,9.00
2023-02-04T20:02:59.211Z,7.60
2023-02-04T20:05:16.470Z,8.70
2023-02-04T20:07:25.764Z,10.73
2023-02-04T20:09:37.137Z,12.77
2023-02-04T20:12:06.343Z,12.57
2023-02-04T20:14:22.127Z,12.40
2023-02-04T20:16:35.893Z,9.00
2023-02-04T20:18:44.655Z,6.83
2023-02-04T20:20:54.888Z,7.50
2023-02-04T20:23:04.826Z,10.40
2023-02-04T20:25:44.938Z,11.23
2023-02-04T20:27:58.600Z,10.40
2023-02-04T20:30:23.689Z,11.43
2023-02-04T20:32:36.592Z,9.17
2023-02-04T20:34:45.478Z,9.63
2023-02-04T20:36:55.272Z,9.77
2023-02-04T20:39:30.848Z,8.67
2023-02-04T20:41:40.385Z,6.93
2023-02-04T20:43:52.669Z,6.63
2023-02-04T20:46:02.418Z,7.23
2023-02-04T20:48:27.520Z,6.80
2023-02-04T20:50:41.333Z,6.80
2023-02-04T20:53:10.256Z,7.03
2023-02-04T20:55:25.489Z,7.63
2023-02-04T20:57:34.218Z,9.40
2023-02-04T20:59:45.363Z,12.60
2023-02-04T21:01:56.497Z,8.47
2023-02-04T21:04:18.168Z,10.27
2023-02-04T21:06:28.082Z,4.90
2023-02-04T21:08:38.640Z,8.37
2023-02-04T21:10:47.658Z,8.20
2023-02-04T21:12:59.583Z,8.10
2023-02-04T21:15:11.329Z,7.80
2023-02-04T21:17:20.351Z,8.80
2023-02-04T21:19:30.045Z,10.70
2023-02-04T21:21:38.942Z,8.53
2023-02-04T21:23:47.917Z,8.53
2023-02-04T21:25:56.699Z,9.10
2023-02-04T21:28:06.094Z,9.83
2023-02-04T21:30:17.666Z,8.40
2023-02-04T21:32:27.429Z,7.03
2023-02-04T21:34:36.411Z,7.10
2023-02-04T21:36:44.988Z,7.33
2023-02-04T21:38:53.859Z,6.97
2023-02-04T21:41:02.849Z,7.00
2023-02-04T21:43:11.818Z,5.67
2023-02-04T21:45:25.687Z,4.90
2023-02-04T21:47:34.386Z,4.63
2023-02-04T21:49:43.201Z,3.63
2023-02-04T21:51:52.025Z,4.23
2023-02-04T21:54:04.535Z,4.70
2023-02-04T21:56:14.420Z,4.03
2023-02-04T21:58:23.478Z,4.63
2023-02-04T22:00:34.879Z,4.13
2023-02-04T22:02:44.216Z,4.10
2023-02-04T22:04:53.168Z,4.70
2023-02-04T22:07:02.402Z,5.30
2023-02-04T22:09:11.577Z,26.70
2023-02-04T22:11:20.587Z,28.33
2023-02-04T22:13:46.534Z,13.27
2023-02-04T22:15:57.414Z,7.80
2023-02-04T22:18:06.680Z,8.47
2023-02-04T22:20:17.320Z,8.10
2023-02-04T22:22:26.274Z,7.87
2023-02-04T22:24:35.117Z,7.70
2023-02-04T22:26:44.523Z,6.50
2023-02-04T22:28:53.367Z,6.97
2023-02-04T22:31:03.886Z,7.17
2023-02-04T22:33:14.287Z,6.27
2023-02-04T22:35:22.978Z,6.60
2023-02-04T22:37:31.709Z,7.80
2023-02-04T22:39:40.623Z,6.77
2023-02-04T22:41:49.497Z,6.83
2023-02-04T22:43:58.216Z,6.57
2023-02-04T22:46:08.856Z,6.37
2023-02-04T22:48:17.749Z,5.97
2023-02-04T22:50:26.544Z,5.77
2023-02-04T22:52:35.196Z,5.20
2023-02-04T22:54:44.885Z,5.93
2023-02-04T22:56:53.889Z,5.40
2023-02-04T22:59:02.647Z,5.00
2023-02-04T23:01:13.135Z,5.70
2023-02-04T23:03:22.807Z,5.10
2023-02-04T23:05:31.926Z,5.03
2023-02-04T23:07:40.935Z,4.87
2023-02-04T23:09:49.562Z,3.93
2023-02-04T23:11:58.582Z,5.43
2023-02-04T23:14:07.326Z,4.80
2023-02-04T23:16:17.821Z,4.80
2023-02-04T23:18:26.661Z,4.63
2023-02-04T23:20:35.726Z,4.20
2023-02-04T23:22:44.632Z,3.50
2023-02-04T23:24:53.323Z,3.60
2023-02-04T23:27:01.988Z,3.97
2023-02-04T23:29:10.777Z,3.53
2023-02-04T23:31:21.124Z,4.07
2023-02-04T23:33:30.053Z,3.60
2023-02-04T23:35:39.401Z,3.50
2023-02-04T23:37:48.540Z,2.53
2023-02-04T23:39:57.650Z,2.13
2023-02-04T23:42:06.414Z,2.10
2023-02-04T23:44:15.315Z,2.00
2023-02-04T23:46:25.518Z,2.10
2023-02-04T23:48:34.300Z,1.63
2023-02-04T23:50:43.158Z,3.03
2023-02-04T23:52:52.084Z,2.60
2023-02-04T23:55:00.927Z,2.90
2023-02-04T23:57:11.339Z,2.60
2023-02-04T23:59:20.272Z,3.50
